sensor_id;sensor_type;location;lat;lon;timestamp;P1;durP1;ratioP1;P2;durP2;ratioP2
18520;SDS011;9390;51.244;6.982;2023-06-10T00:00:13;13.70;;;7.10;;
18520;SDS011;9390;51.244;6.982;2023-06-10T00:02:46;11.68;;;6.63;;
18520;SDS011;9390;51.244;6.982;2023-06-10T00:05:18;11.57;;;6.78;;
18520;SDS011;9390;51.244;6.982;2023-06-10T00:07:51;13.48;;;6.90;;
18520;SDS011;9390;51.244;6.982;2023-06-10T00:10:25;11.63;;;6.43;;
18520;SDS011;9390;51.244;6.982;2023-06-10T00:12:56;12.05;;;7.30;;
18520;SDS011;9390;51.244;6.982;2023-06-10T00:15:28;11.52;;;6.63;;
18520;SDS011;9390;51.244;6.982;2023-06-10T00:17:59;14.07;;;6.85;;
18520;SDS011;9390;51.244;6.982;2023-06-10T00:20:32;11.02;;;6.82;;
18520;SDS011;9390;51.244;6.982;2023-06-10T00:23:06;10.90;;;7.03;;
18520;SDS011;9390;51.244;6.982;2023-06-10T00:25:38;11.50;;;7.03;;
18520;SDS011;9390;51.244;6.982;2023-06-10T00:28:09;10.75;;;6.25;;
18520;SDS011;9390;51.244;6.982;2023-06-10T00:30:41;10.20;;;6.38;;
18520;SDS011;9390;51.244;6.982;2023-06-10T00:33:12;16.35;;;7.20;;
18520;SDS011;9390;51.244;6.982;2023-06-10T00:35:45;13.68;;;6.90;;
18520;SDS011;9390;51.244;6.982;2023-06-10T00:38:16;14.32;;;7.05;;
18520;SDS011;9390;51.244;6.982;2023-06-10T00:40:48;14.23;;;6.63;;
18520;SDS011;9390;51.244;6.982;2023-06-10T00:43:19;11.38;;;7.15;;
18520;SDS011;9390;51.244;6.982;2023-06-10T00:45:50;10.40;;;6.80;;
18520;SDS011;9390;51.244;6.982;2023-06-10T00:48:22;10.88;;;6.78;;
18520;SDS011;9390;51.244;6.982;2023-06-10T00:50:56;11.07;;;7.47;;
18520;SDS011;9390;51.244;6.982;2023-06-10T00:53:28;12.15;;;7.53;;
18520;SDS011;9390;51.244;6.982;2023-06-10T00:55:59;13.02;;;7.50;;
18520;SDS011;9390;51.244;6.982;2023-06-10T00:58:30;14.48;;;7.75;;
18520;SDS011;9390;51.244;6.982;2023-06-10T01:01:02;12.90;;;7.13;;
18520;SDS011;9390;51.244;6.982;2023-06-10T01:03:34;11.35;;;7.55;;
18520;SDS011;9390;51.244;6.982;2023-06-10T01:06:10;11.47;;;7.13;;
18520;SDS011;9390;51.244;6.982;2023-06-10T01:08:55;10.85;;;7.38;;
18520;SDS011;9390;51.244;6.982;2023-06-10T01:11:29;10.52;;;6.95;;
18520;SDS011;9390;51.244;6.982;2023-06-10T01:14:05;10.60;;;6.95;;
18520;SDS011;9390;51.244;6.982;2023-06-10T01:16:37;14.00;;;8.00;;
18520;SDS011;9390;51.244;6.982;2023-06-10T01:19:10;11.50;;;6.57;;
18520;SDS011;9390;51.244;6.982;2023-06-10T01:21:44;12.27;;;7.40;;
18520;SDS011;9390;51.244;6.982;2023-06-10T01:24:18;11.30;;;6.95;;
18520;SDS011;9390;51.244;6.982;2023-06-10T01:26:49;12.63;;;6.68;;
18520;SDS011;9390;51.244;6.982;2023-06-10T01:29:22;11.77;;;7.13;;
18520;SDS011;9390;51.244;6.982;2023-06-10T01:32:01;15.50;;;7.22;;
18520;SDS011;9390;51.244;6.982;2023-06-10T01:34:36;14.32;;;7.80;;
18520;SDS011;9390;51.244;6.982;2023-06-10T01:37:09;11.65;;;7.47;;
18520;SDS011;9390;51.244;6.982;2023-06-10T01:39:44;12.77;;;7.93;;
18520;SDS011;9390;51.244;6.982;2023-06-10T01:42:16;11.32;;;7.63;;
18520;SDS011;9390;51.244;6.982;2023-06-10T01:44:48;14.15;;;7.80;;
18520;SDS011;9390;51.244;6.982;2023-06-10T01:47:19;11.05;;;7.35;;
18520;SDS011;9390;51.244;6.982;2023-06-10T01:49:51;11.52;;;7.65;;
18520;SDS011;9390;51.244;6.982;2023-06-10T01:52:24;11.93;;;7.43;;
18520;SDS011;9390;51.244;6.982;2023-06-10T01:54:56;10.88;;;7.07;;
18520;SDS011;9390;51.244;6.982;2023-06-10T01:57:27;13.25;;;7.70;;
18520;SDS011;9390;51.244;6.982;2023-06-10T01:59:58;10.20;;;7.25;;
18520;SDS011;9390;51.244;6.982;2023-06-10T02:02:30;12.25;;;7.50;;
18520;SDS011;9390;51.244;6.982;2023-06-10T02:05:01;10.25;;;7.05;;
18520;SDS011;9390;51.244;6.982;2023-06-10T02:07:34;11.38;;;6.88;;
18520;SDS011;9390;51.244;6.982;2023-06-10T02:10:06;11.35;;;6.72;;
18520;SDS011;9390;51.244;6.982;2023-06-10T02:12:38;12.90;;;6.90;;
18520;SDS011;9390;51.244;6.982;2023-06-10T02:15:10;14.20;;;6.97;;
18520;SDS011;9390;51.244;6.982;2023-06-10T02:17:41;13.48;;;6.88;;
18520;SDS011;9390;51.244;6.982;2023-06-10T02:20:14;10.77;;;6.75;;
18520;SDS011;9390;51.244;6.982;2023-06-10T02:22:47;11.23;;;6.15;;
18520;SDS011;9390;51.244;6.982;2023-06-10T02:25:18;11.27;;;7.03;;
18520;SDS011;9390;51.244;6.982;2023-06-10T02:27:50;13.65;;;7.53;;
18520;SDS011;9390;51.244;6.982;2023-06-10T02:30:21;13.05;;;7.38;;
18520;SDS011;9390;51.244;6.982;2023-06-10T02:32:53;14.82;;;7.20;;
18520;SDS011;9390;51.244;6.982;2023-06-10T02:35:26;10.85;;;6.55;;
18520;SDS011;9390;51.244;6.982;2023-06-10T02:37:58;12.73;;;6.75;;
18520;SDS011;9390;51.244;6.982;2023-06-10T02:40:30;14.23;;;7.32;;
18520;SDS011;9390;51.244;6.982;2023-06-10T02:43:01;15.98;;;7.90;;
18520;SDS011;9390;51.244;6.982;2023-06-10T02:45:33;12.38;;;7.13;;
18520;SDS011;9390;51.244;6.982;2023-06-10T02:48:04;12.45;;;7.13;;
18520;SDS011;9390;51.244;6.982;2023-06-10T02:50:36;12.93;;;7.60;;
18520;SDS011;9390;51.244;6.982;2023-06-10T02:53:10;14.15;;;7.45;;
18520;SDS011;9390;51.244;6.982;2023-06-10T02:55:42;11.10;;;7.55;;
18520;SDS011;9390;51.244;6.982;2023-06-10T02:58:14;13.88;;;7.05;;
18520;SDS011;9390;51.244;6.982;2023-06-10T03:00:45;12.70;;;7.53;;
18520;SDS011;9390;51.244;6.982;2023-06-10T03:03:17;11.45;;;6.90;;
18520;SDS011;9390;51.244;6.982;2023-06-10T03:05:48;11.88;;;6.90;;
18520;SDS011;9390;51.244;6.982;2023-06-10T03:08:21;10.73;;;6.82;;
18520;SDS011;9390;51.244;6.982;2023-06-10T03:10:52;14.25;;;6.97;;
18520;SDS011;9390;51.244;6.982;2023-06-10T03:13:24;11.98;;;6.85;;
18520;SDS011;9390;51.244;6.982;2023-06-10T03:15:55;15.75;;;7.82;;
18520;SDS011;9390;51.244;6.982;2023-06-10T03:18:27;13.15;;;7.80;;
18520;SDS011;9390;51.244;6.982;2023-06-10T03:20:58;10.20;;;6.40;;
18520;SDS011;9390;51.244;6.982;2023-06-10T03:23:31;13.98;;;7.55;;
18520;SDS011;9390;51.244;6.982;2023-06-10T03:26:03;13.23;;;7.00;;
18520;SDS011;9390;51.244;6.982;2023-06-10T03:28:35;15.85;;;7.20;;
18520;SDS011;9390;51.244;6.982;2023-06-10T03:31:07;12.55;;;7.07;;
18520;SDS011;9390;51.244;6.982;2023-06-10T03:33:38;12.65;;;7.85;;
18520;SDS011;9390;51.244;6.982;2023-06-10T03:36:10;13.15;;;7.70;;
18520;SDS011;9390;51.244;6.982;2023-06-10T03:38:43;12.75;;;7.30;;
18520;SDS011;9390;51.244;6.982;2023-06-10T03:41:14;11.43;;;7.32;;
18520;SDS011;9390;51.244;6.982;2023-06-10T03:43:46;11.18;;;6.70;;
18520;SDS011;9390;51.244;6.982;2023-06-10T03:46:17;13.50;;;7.53;;
18520;SDS011;9390;51.244;6.982;2023-06-10T03:48:49;11.45;;;6.93;;
18520;SDS011;9390;51.244;6.982;2023-06-10T03:51:20;14.35;;;7.05;;
18520;SDS011;9390;51.244;6.982;2023-06-10T03:53:54;15.55;;;7.97;;
18520;SDS011;9390;51.244;6.982;2023-06-10T03:56:25;14.27;;;7.18;;
18520;SDS011;9390;51.244;6.982;2023-06-10T03:58:57;11.45;;;7.05;;
18520;SDS011;9390;51.244;6.982;2023-06-10T04:01:28;14.30;;;7.67;;
18520;SDS011;9390;51.244;6.982;2023-06-10T04:04:01;12.70;;;7.10;;
18520;SDS011;9390;51.244;6.982;2023-06-10T04:06:33;14.40;;;7.72;;
18520;SDS011;9390;51.244;6.982;2023-06-10T04:09:06;11.52;;;6.60;;
18520;SDS011;9390;51.244;6.982;2023-06-10T04:11:39;11.02;;;6.70;;
18520;SDS011;9390;51.244;6.982;2023-06-10T04:14:11;13.35;;;7.45;;
18520;SDS011;9390;51.244;6.982;2023-06-10T04:16:43;11.02;;;6.93;;
18520;SDS011;9390;51.244;6.982;2023-06-10T04:19:15;13.88;;;7.50;;
18520;SDS011;9390;51.244;6.982;2023-06-10T04:21:46;14.45;;;7.07;;
18520;SDS011;9390;51.244;6.982;2023-06-10T04:24:19;12.50;;;7.22;;
18520;SDS011;9390;51.244;6.982;2023-06-10T04:26:50;14.40;;;6.78;;
18520;SDS011;9390;51.244;6.982;2023-06-10T04:29:22;11.65;;;6.97;;
18520;SDS011;9390;51.244;6.982;2023-06-10T04:31:54;14.35;;;7.18;;
18520;SDS011;9390;51.244;6.982;2023-06-10T04:34:25;13.35;;;6.97;;
18520;SDS011;9390;51.244;6.982;2023-06-10T04:36:56;11.98;;;7.20;;
18520;SDS011;9390;51.244;6.982;2023-06-10T04:39:29;13.50;;;7.47;;
18520;SDS011;9390;51.244;6.982;2023-06-10T04:42:00;11.93;;;6.60;;
18520;SDS011;9390;51.244;6.982;2023-06-10T04:44:32;11.27;;;6.18;;
18520;SDS011;9390;51.244;6.982;2023-06-10T04:47:04;14.48;;;7.38;;
18520;SDS011;9390;51.244;6.982;2023-06-10T04:49:36;10.77;;;6.60;;
18520;SDS011;9390;51.244;6.982;2023-06-10T04:52:07;11.27;;;6.63;;
18520;SDS011;9390;51.244;6.982;2023-06-10T04:54:40;13.25;;;7.10;;
18520;SDS011;9390;51.244;6.982;2023-06-10T04:57:11;11.45;;;6.38;;
18520;SDS011;9390;51.244;6.982;2023-06-10T04:59:43;11.95;;;6.88;;
18520;SDS011;9390;51.244;6.982;2023-06-10T05:02:14;11.85;;;5.70;;
18520;SDS011;9390;51.244;6.982;2023-06-10T05:04:46;11.95;;;7.22;;
18520;SDS011;9390;51.244;6.982;2023-06-10T05:07:17;13.45;;;5.90;;
18520;SDS011;9390;51.244;6.982;2023-06-10T05:09:50;12.93;;;6.97;;
18520;SDS011;9390;51.244;6.982;2023-06-10T05:12:21;13.23;;;6.75;;
18520;SDS011;9390;51.244;6.982;2023-06-10T05:14:53;12.27;;;6.30;;
18520;SDS011;9390;51.244;6.982;2023-06-10T05:17:24;11.98;;;6.68;;
18520;SDS011;9390;51.244;6.982;2023-06-10T05:19:56;12.00;;;6.53;;
18520;SDS011;9390;51.244;6.982;2023-06-10T05:22:27;11.63;;;6.25;;
18520;SDS011;9390;51.244;6.982;2023-06-10T05:25:00;15.98;;;6.95;;
18520;SDS011;9390;51.244;6.982;2023-06-10T05:27:31;13.52;;;7.47;;
18520;SDS011;9390;51.244;6.982;2023-06-10T05:30:03;11.60;;;7.10;;
18520;SDS011;9390;51.244;6.982;2023-06-10T05:32:35;11.82;;;7.07;;
18520;SDS011;9390;51.244;6.982;2023-06-10T05:35:07;11.00;;;6.72;;
18520;SDS011;9390;51.244;6.982;2023-06-10T05:37:38;12.57;;;7.13;;
18520;SDS011;9390;51.244;6.982;2023-06-10T05:40:11;13.55;;;7.28;;
18520;SDS011;9390;51.244;6.982;2023-06-10T05:42:43;12.43;;;6.85;;
18520;SDS011;9390;51.244;6.982;2023-06-10T05:45:14;12.88;;;7.38;;
18520;SDS011;9390;51.244;6.982;2023-06-10T05:47:46;11.88;;;7.05;;
18520;SDS011;9390;51.244;6.982;2023-06-10T05:50:17;16.00;;;7.15;;
18520;SDS011;9390;51.244;6.982;2023-06-10T05:52:48;13.10;;;7.30;;
18520;SDS011;9390;51.244;6.982;2023-06-10T05:55:21;12.60;;;6.93;;
18520;SDS011;9390;51.244;6.982;2023-06-10T05:57:58;12.32;;;7.20;;
18520;SDS011;9390;51.244;6.982;2023-06-10T06:00:29;11.68;;;6.72;;
18520;SDS011;9390;51.244;6.982;2023-06-10T06:03:01;12.20;;;6.82;;
18520;SDS011;9390;51.244;6.982;2023-06-10T06:05:32;10.77;;;6.88;;
18520;SDS011;9390;51.244;6.982;2023-06-10T06:08:05;12.27;;;6.63;;
18520;SDS011;9390;51.244;6.982;2023-06-10T06:10:38;13.07;;;7.25;;
18520;SDS011;9390;51.244;6.982;2023-06-10T06:13:09;14.93;;;6.63;;
18520;SDS011;9390;51.244;6.982;2023-06-10T06:15:40;12.15;;;6.60;;
18520;SDS011;9390;51.244;6.982;2023-06-10T06:18:12;11.85;;;6.50;;
18520;SDS011;9390;51.244;6.982;2023-06-10T06:20:43;11.20;;;6.57;;
18520;SDS011;9390;51.244;6.982;2023-06-10T06:23:15;15.75;;;7.07;;
18520;SDS011;9390;51.244;6.982;2023-06-10T06:25:48;13.07;;;6.70;;
18520;SDS011;9390;51.244;6.982;2023-06-10T06:28:19;13.95;;;7.10;;
18520;SDS011;9390;51.244;6.982;2023-06-10T06:30:51;14.82;;;7.00;;
18520;SDS011;9390;51.244;6.982;2023-06-10T06:33:22;12.68;;;6.82;;
18520;SDS011;9390;51.244;6.982;2023-06-10T06:35:53;12.57;;;6.50;;
18520;SDS011;9390;51.244;6.982;2023-06-10T06:38:25;12.40;;;6.28;;
18520;SDS011;9390;51.244;6.982;2023-06-10T06:40:57;12.48;;;6.75;;
18520;SDS011;9390;51.244;6.982;2023-06-10T06:43:32;15.63;;;7.05;;
18520;SDS011;9390;51.244;6.982;2023-06-10T06:46:05;13.95;;;6.15;;
18520;SDS011;9390;51.244;6.982;2023-06-10T06:48:36;12.37;;;6.93;;
18520;SDS011;9390;51.244;6.982;2023-06-10T06:51:07;14.35;;;6.60;;
18520;SDS011;9390;51.244;6.982;2023-06-10T06:53:39;10.52;;;6.35;;
18520;SDS011;9390;51.244;6.982;2023-06-10T06:56:15;12.25;;;6.15;;
18520;SDS011;9390;51.244;6.982;2023-06-10T06:58:47;15.25;;;6.50;;
18520;SDS011;9390;51.244;6.982;2023-06-10T07:01:18;10.05;;;5.75;;
18520;SDS011;9390;51.244;6.982;2023-06-10T07:03:50;14.07;;;6.93;;
18520;SDS011;9390;51.244;6.982;2023-06-10T07:06:21;10.55;;;6.05;;
18520;SDS011;9390;51.244;6.982;2023-06-10T07:08:53;13.40;;;6.20;;
18520;SDS011;9390;51.244;6.982;2023-06-10T07:11:25;13.35;;;6.18;;
18520;SDS011;9390;51.244;6.982;2023-06-10T07:13:57;10.32;;;6.05;;
18520;SDS011;9390;51.244;6.982;2023-06-10T07:16:28;11.50;;;6.40;;
18520;SDS011;9390;51.244;6.982;2023-06-10T07:18:59;13.73;;;5.93;;
18520;SDS011;9390;51.244;6.982;2023-06-10T07:21:31;13.13;;;6.82;;
18520;SDS011;9390;51.244;6.982;2023-06-10T07:24:04;13.23;;;6.25;;
18520;SDS011;9390;51.244;6.982;2023-06-10T07:26:39;10.73;;;5.90;;
18520;SDS011;9390;51.244;6.982;2023-06-10T07:31:42;12.20;;;5.85;;
18520;SDS011;9390;51.244;6.982;2023-06-10T07:34:14;14.27;;;6.28;;
18520;SDS011;9390;51.244;6.982;2023-06-10T07:36:45;10.73;;;6.10;;
18520;SDS011;9390;51.244;6.982;2023-06-10T07:39:16;11.88;;;6.70;;
18520;SDS011;9390;51.244;6.982;2023-06-10T07:41:49;10.65;;;6.57;;
18520;SDS011;9390;51.244;6.982;2023-06-10T07:44:23;11.10;;;6.20;;
18520;SDS011;9390;51.244;6.982;2023-06-10T07:46:55;14.88;;;6.70;;
18520;SDS011;9390;51.244;6.982;2023-06-10T07:49:27;13.57;;;6.50;;
18520;SDS011;9390;51.244;6.982;2023-06-10T07:52:00;10.20;;;6.32;;
18520;SDS011;9390;51.244;6.982;2023-06-10T07:54:32;12.13;;;6.20;;
18520;SDS011;9390;51.244;6.982;2023-06-10T07:57:05;9.55;;;5.72;;
18520;SDS011;9390;51.244;6.982;2023-06-10T07:59:37;11.27;;;6.18;;
18520;SDS011;9390;51.244;6.982;2023-06-10T08:02:09;15.38;;;6.28;;
18520;SDS011;9390;51.244;6.982;2023-06-10T08:04:40;11.43;;;6.00;;
18520;SDS011;9390;51.244;6.982;2023-06-10T08:07:12;12.30;;;5.63;;
18520;SDS011;9390;51.244;6.982;2023-06-10T08:09:43;10.27;;;5.78;;
18520;SDS011;9390;51.244;6.982;2023-06-10T08:12:16;12.93;;;5.88;;
18520;SDS011;9390;51.244;6.982;2023-06-10T08:17:18;12.50;;;5.82;;
18520;SDS011;9390;51.244;6.982;2023-06-10T08:19:50;9.85;;;5.57;;
18520;SDS011;9390;51.244;6.982;2023-06-10T08:22:21;13.68;;;5.93;;
18520;SDS011;9390;51.244;6.982;2023-06-10T08:24:53;11.27;;;5.93;;
18520;SDS011;9390;51.244;6.982;2023-06-10T08:27:25;9.93;;;5.40;;
18520;SDS011;9390;51.244;6.982;2023-06-10T08:29:57;10.02;;;5.78;;
18520;SDS011;9390;51.244;6.982;2023-06-10T08:32:30;12.15;;;5.55;;
18520;SDS011;9390;51.244;6.982;2023-06-10T08:35:02;11.93;;;5.68;;
18520;SDS011;9390;51.244;6.982;2023-06-10T08:37:33;10.10;;;6.15;;
18520;SDS011;9390;51.244;6.982;2023-06-10T08:40:05;13.43;;;6.10;;
18520;SDS011;9390;51.244;6.982;2023-06-10T08:47:43;14.27;;;6.15;;
18520;SDS011;9390;51.244;6.982;2023-06-10T08:50:16;11.57;;;6.82;;
18520;SDS011;9390;51.244;6.982;2023-06-10T08:52:48;10.85;;;5.80;;
18520;SDS011;9390;51.244;6.982;2023-06-10T08:55:23;10.50;;;6.22;;
18520;SDS011;9390;51.244;6.982;2023-06-10T08:58:00;11.65;;;5.38;;
18520;SDS011;9390;51.244;6.982;2023-06-10T09:00:32;8.63;;;5.55;;
18520;SDS011;9390;51.244;6.982;2023-06-10T09:03:05;11.45;;;6.38;;
18520;SDS011;9390;51.244;6.982;2023-06-10T09:05:38;11.35;;;6.25;;
18520;SDS011;9390;51.244;6.982;2023-06-10T09:08:10;8.43;;;5.45;;
18520;SDS011;9390;51.244;6.982;2023-06-10T09:10:41;11.18;;;5.78;;
18520;SDS011;9390;51.244;6.982;2023-06-10T09:13:14;10.45;;;5.88;;
18520;SDS011;9390;51.244;6.982;2023-06-10T09:15:48;11.45;;;5.60;;
18520;SDS011;9390;51.244;6.982;2023-06-10T09:18:21;12.30;;;5.95;;
18520;SDS011;9390;51.244;6.982;2023-06-10T09:20:52;10.75;;;5.75;;
18520;SDS011;9390;51.244;6.982;2023-06-10T09:23:24;10.43;;;5.97;;
18520;SDS011;9390;51.244;6.982;2023-06-10T09:25:55;11.60;;;5.90;;
18520;SDS011;9390;51.244;6.982;2023-06-10T09:28:29;9.30;;;5.55;;
18520;SDS011;9390;51.244;6.982;2023-06-10T09:31:03;11.40;;;5.60;;
18520;SDS011;9390;51.244;6.982;2023-06-10T09:33:36;9.82;;;5.93;;
18520;SDS011;9390;51.244;6.982;2023-06-10T09:36:09;14.02;;;5.50;;
18520;SDS011;9390;51.244;6.982;2023-06-10T09:38:41;9.85;;;5.43;;
18520;SDS011;9390;51.244;6.982;2023-06-10T09:41:12;10.18;;;5.70;;
18520;SDS011;9390;51.244;6.982;2023-06-10T09:43:46;12.35;;;5.90;;
18520;SDS011;9390;51.244;6.982;2023-06-10T09:46:19;12.15;;;5.80;;
18520;SDS011;9390;51.244;6.982;2023-06-10T09:48:50;11.63;;;5.90;;
18520;SDS011;9390;51.244;6.982;2023-06-10T09:51:22;11.98;;;5.85;;
18520;SDS011;9390;51.244;6.982;2023-06-10T09:53:53;9.00;;;5.40;;
18520;SDS011;9390;51.244;6.982;2023-06-10T09:56:32;9.93;;;5.13;;
18520;SDS011;9390;51.244;6.982;2023-06-10T09:59:05;10.45;;;5.47;;
18520;SDS011;9390;51.244;6.982;2023-06-10T10:01:37;11.02;;;6.18;;
18520;SDS011;9390;51.244;6.982;2023-06-10T10:04:08;10.07;;;6.03;;
18520;SDS011;9390;51.244;6.982;2023-06-10T10:06:39;9.57;;;5.85;;
18520;SDS011;9390;51.244;6.982;2023-06-10T10:09:11;11.45;;;6.32;;
18520;SDS011;9390;51.244;6.982;2023-06-10T10:11:43;9.55;;;5.47;;
18520;SDS011;9390;51.244;6.982;2023-06-10T10:14:16;11.38;;;5.45;;
18520;SDS011;9390;51.244;6.982;2023-06-10T10:16:47;10.18;;;5.80;;
18520;SDS011;9390;51.244;6.982;2023-06-10T10:19:20;11.75;;;5.43;;
18520;SDS011;9390;51.244;6.982;2023-06-10T10:21:56;10.40;;;5.95;;
18520;SDS011;9390;51.244;6.982;2023-06-10T10:24:33;12.57;;;7.20;;
18520;SDS011;9390;51.244;6.982;2023-06-10T10:27:07;13.30;;;6.10;;
18520;SDS011;9390;51.244;6.982;2023-06-10T10:29:45;10.65;;;5.82;;
18520;SDS011;9390;51.244;6.982;2023-06-10T10:32:17;12.20;;;6.68;;
18520;SDS011;9390;51.244;6.982;2023-06-10T10:34:50;9.23;;;5.32;;
18520;SDS011;9390;51.244;6.982;2023-06-10T10:37:26;8.88;;;5.50;;
18520;SDS011;9390;51.244;6.982;2023-06-10T10:39:58;9.10;;;5.85;;
18520;SDS011;9390;51.244;6.982;2023-06-10T10:42:30;10.40;;;5.78;;
18520;SDS011;9390;51.244;6.982;2023-06-10T10:45:04;9.55;;;5.15;;
18520;SDS011;9390;51.244;6.982;2023-06-10T10:47:37;12.10;;;5.97;;
18520;SDS011;9390;51.244;6.982;2023-06-10T10:50:12;8.73;;;5.00;;
18520;SDS011;9390;51.244;6.982;2023-06-10T10:52:52;12.20;;;5.50;;
18520;SDS011;9390;51.244;6.982;2023-06-10T10:55:24;9.77;;;5.68;;
18520;SDS011;9390;51.244;6.982;2023-06-10T10:57:57;9.00;;;5.40;;
18520;SDS011;9390;51.244;6.982;2023-06-10T11:00:31;11.95;;;5.15;;
18520;SDS011;9390;51.244;6.982;2023-06-10T11:03:04;9.18;;;5.05;;
18520;SDS011;9390;51.244;6.982;2023-06-10T11:05:38;12.40;;;5.30;;
18520;SDS011;9390;51.244;6.982;2023-06-10T11:08:11;10.38;;;5.85;;
18520;SDS011;9390;51.244;6.982;2023-06-10T11:10:51;10.57;;;5.57;;
18520;SDS011;9390;51.244;6.982;2023-06-10T11:13:23;15.50;;;5.80;;
18520;SDS011;9390;51.244;6.982;2023-06-10T11:15:58;10.00;;;5.57;;
18520;SDS011;9390;51.244;6.982;2023-06-10T11:18:29;9.55;;;5.60;;
18520;SDS011;9390;51.244;6.982;2023-06-10T11:21:03;9.07;;;5.35;;
18520;SDS011;9390;51.244;6.982;2023-06-10T11:23:39;10.18;;;5.60;;
18520;SDS011;9390;51.244;6.982;2023-06-10T11:26:12;9.65;;;5.28;;
18520;SDS011;9390;51.244;6.982;2023-06-10T11:29:03;9.45;;;5.50;;
18520;SDS011;9390;51.244;6.982;2023-06-10T11:31:40;10.98;;;5.55;;
18520;SDS011;9390;51.244;6.982;2023-06-10T11:34:12;15.82;;;6.22;;
18520;SDS011;9390;51.244;6.982;2023-06-10T11:36:44;10.30;;;5.70;;
18520;SDS011;9390;51.244;6.982;2023-06-10T11:39:16;12.33;;;5.70;;
18520;SDS011;9390;51.244;6.982;2023-06-10T11:41:50;9.43;;;5.28;;
18520;SDS011;9390;51.244;6.982;2023-06-10T11:44:22;10.95;;;5.60;;
18520;SDS011;9390;51.244;6.982;2023-06-10T11:47:00;12.98;;;5.53;;
18520;SDS011;9390;51.244;6.982;2023-06-10T11:49:31;12.52;;;5.75;;
18520;SDS011;9390;51.244;6.982;2023-06-10T11:52:04;9.82;;;5.22;;
18520;SDS011;9390;51.244;6.982;2023-06-10T11:54:35;10.10;;;5.55;;
18520;SDS011;9390;51.244;6.982;2023-06-10T11:57:07;10.95;;;5.70;;
18520;SDS011;9390;51.244;6.982;2023-06-10T11:59:39;10.93;;;5.47;;
18520;SDS011;9390;51.244;6.982;2023-06-10T12:02:15;11.77;;;6.18;;
18520;SDS011;9390;51.244;6.982;2023-06-10T12:04:47;11.32;;;5.68;;
18520;SDS011;9390;51.244;6.982;2023-06-10T12:07:18;13.93;;;6.05;;
18520;SDS011;9390;51.244;6.982;2023-06-10T12:09:58;10.77;;;6.80;;
18520;SDS011;9390;51.244;6.982;2023-06-10T12:12:29;9.68;;;5.65;;
18520;SDS011;9390;51.244;6.982;2023-06-10T12:15:01;9.85;;;5.20;;
18520;SDS011;9390;51.244;6.982;2023-06-10T12:17:36;10.38;;;5.72;;
18520;SDS011;9390;51.244;6.982;2023-06-10T12:20:09;11.93;;;5.95;;
18520;SDS011;9390;51.244;6.982;2023-06-10T12:22:55;9.13;;;5.32;;
18520;SDS011;9390;51.244;6.982;2023-06-10T12:25:27;12.60;;;6.07;;
18520;SDS011;9390;51.244;6.982;2023-06-10T12:27:59;10.90;;;6.00;;
18520;SDS011;9390;51.244;6.982;2023-06-10T12:30:31;10.45;;;5.50;;
18520;SDS011;9390;51.244;6.982;2023-06-10T12:33:04;11.47;;;5.67;;
18520;SDS011;9390;51.244;6.982;2023-06-10T12:35:35;13.30;;;6.03;;
18520;SDS011;9390;51.244;6.982;2023-06-10T12:38:21;9.32;;;4.88;;
18520;SDS011;9390;51.244;6.982;2023-06-10T12:40:54;9.48;;;5.50;;
18520;SDS011;9390;51.244;6.982;2023-06-10T12:43:26;11.88;;;6.35;;
18520;SDS011;9390;51.244;6.982;2023-06-10T12:46:07;10.63;;;5.70;;
18520;SDS011;9390;51.244;6.982;2023-06-10T12:48:50;8.20;;;4.97;;
18520;SDS011;9390;51.244;6.982;2023-06-10T12:51:24;12.30;;;6.18;;
18520;SDS011;9390;51.244;6.982;2023-06-10T12:53:55;10.65;;;5.57;;
18520;SDS011;9390;51.244;6.982;2023-06-10T12:56:27;10.75;;;5.80;;
18520;SDS011;9390;51.244;6.982;2023-06-10T12:58:58;13.90;;;5.85;;
18520;SDS011;9390;51.244;6.982;2023-06-10T13:01:29;9.27;;;5.88;;
18520;SDS011;9390;51.244;6.982;2023-06-10T13:04:03;12.77;;;6.07;;
18520;SDS011;9390;51.244;6.982;2023-06-10T13:06:36;13.02;;;5.57;;
18520;SDS011;9390;51.244;6.982;2023-06-10T13:09:09;13.82;;;6.03;;
18520;SDS011;9390;51.244;6.982;2023-06-10T13:11:40;10.65;;;5.97;;
18520;SDS011;9390;51.244;6.982;2023-06-10T13:14:12;9.50;;;5.95;;
18520;SDS011;9390;51.244;6.982;2023-06-10T13:16:44;8.90;;;5.10;;
18520;SDS011;9390;51.244;6.982;2023-06-10T13:19:17;9.43;;;5.22;;
18520;SDS011;9390;51.244;6.982;2023-06-10T13:21:48;11.70;;;5.32;;
18520;SDS011;9390;51.244;6.982;2023-06-10T13:24:19;9.98;;;5.07;;
18520;SDS011;9390;51.244;6.982;2023-06-10T13:26:51;9.37;;;5.50;;
18520;SDS011;9390;51.244;6.982;2023-06-10T13:29:22;9.30;;;5.40;;
18520;SDS011;9390;51.244;6.982;2023-06-10T13:31:54;13.07;;;5.53;;
18520;SDS011;9390;51.244;6.982;2023-06-10T13:34:26;12.52;;;5.35;;
18520;SDS011;9390;51.244;6.982;2023-06-10T13:36:58;11.98;;;5.47;;
18520;SDS011;9390;51.244;6.982;2023-06-10T13:39:29;8.57;;;5.28;;
18520;SDS011;9390;51.244;6.982;2023-06-10T13:42:00;9.60;;;5.03;;
18520;SDS011;9390;51.244;6.982;2023-06-10T13:44:32;10.38;;;5.30;;
18520;SDS011;9390;51.244;6.982;2023-06-10T13:47:06;16.80;;;6.00;;
18520;SDS011;9390;51.244;6.982;2023-06-10T13:49:39;10.40;;;5.03;;
18520;SDS011;9390;51.244;6.982;2023-06-10T13:52:11;10.13;;;6.07;;
18520;SDS011;9390;51.244;6.982;2023-06-10T13:54:42;11.18;;;4.88;;
18520;SDS011;9390;51.244;6.982;2023-06-10T13:57:14;11.50;;;5.70;;
18520;SDS011;9390;51.244;6.982;2023-06-10T13:59:45;12.27;;;5.40;;
18520;SDS011;9390;51.244;6.982;2023-06-10T14:02:17;11.63;;;6.18;;
18520;SDS011;9390;51.244;6.982;2023-06-10T14:04:49;10.02;;;5.70;;
18520;SDS011;9390;51.244;6.982;2023-06-10T14:07:21;9.02;;;5.10;;
18520;SDS011;9390;51.244;6.982;2023-06-10T14:09:52;18.65;;;5.45;;
18520;SDS011;9390;51.244;6.982;2023-06-10T14:12:23;14.65;;;5.32;;
18520;SDS011;9390;51.244;6.982;2023-06-10T14:14:55;10.48;;;5.55;;
18520;SDS011;9390;51.244;6.982;2023-06-10T14:17:26;11.48;;;5.80;;
18520;SDS011;9390;51.244;6.982;2023-06-10T14:19:59;12.52;;;5.70;;
18520;SDS011;9390;51.244;6.982;2023-06-10T14:22:30;8.88;;;5.30;;
18520;SDS011;9390;51.244;6.982;2023-06-10T14:25:02;8.95;;;5.07;;
18520;SDS011;9390;51.244;6.982;2023-06-10T14:27:34;9.95;;;5.15;;
18520;SDS011;9390;51.244;6.982;2023-06-10T14:30:06;16.13;;;5.65;;
18520;SDS011;9390;51.244;6.982;2023-06-10T14:35:10;11.15;;;5.95;;
18520;SDS011;9390;51.244;6.982;2023-06-10T14:37:42;12.88;;;5.22;;
18520;SDS011;9390;51.244;6.982;2023-06-10T14:40:13;11.40;;;5.40;;
18520;SDS011;9390;51.244;6.982;2023-06-10T14:42:45;10.55;;;5.63;;
18520;SDS011;9390;51.244;6.982;2023-06-10T14:45:16;11.25;;;5.63;;
18520;SDS011;9390;51.244;6.982;2023-06-10T14:47:47;10.73;;;5.47;;
18520;SDS011;9390;51.244;6.982;2023-06-10T14:50:20;9.85;;;5.07;;
18520;SDS011;9390;51.244;6.982;2023-06-10T14:52:52;19.08;;;5.20;;
18520;SDS011;9390;51.244;6.982;2023-06-10T14:55:27;16.35;;;5.50;;
18520;SDS011;9390;51.244;6.982;2023-06-10T14:57:58;9.33;;;5.50;;
18520;SDS011;9390;51.244;6.982;2023-06-10T15:00:30;10.13;;;5.15;;
18520;SDS011;9390;51.244;6.982;2023-06-10T15:03:01;13.63;;;5.95;;
18520;SDS011;9390;51.244;6.982;2023-06-10T15:05:34;11.73;;;5.32;;
18520;SDS011;9390;51.244;6.982;2023-06-10T15:08:07;19.58;;;5.63;;
18520;SDS011;9390;51.244;6.982;2023-06-10T15:10:38;8.40;;;4.90;;
18520;SDS011;9390;51.244;6.982;2023-06-10T15:13:10;9.60;;;4.87;;
18520;SDS011;9390;51.244;6.982;2023-06-10T15:15:43;10.95;;;5.32;;
18520;SDS011;9390;51.244;6.982;2023-06-10T15:18:15;10.90;;;4.95;;
18520;SDS011;9390;51.244;6.982;2023-06-10T15:20:47;21.93;;;5.63;;
18520;SDS011;9390;51.244;6.982;2023-06-10T15:23:19;8.73;;;5.05;;
18520;SDS011;9390;51.244;6.982;2023-06-10T15:25:51;11.20;;;5.30;;
18520;SDS011;9390;51.244;6.982;2023-06-10T15:28:22;11.50;;;4.93;;
18520;SDS011;9390;51.244;6.982;2023-06-10T15:30:54;9.32;;;5.10;;
18520;SDS011;9390;51.244;6.982;2023-06-10T15:33:25;8.90;;;5.05;;